Time;durP1;ratioP1;P1;durP2;ratioP2;P2;SDS_P1;SDS_P2;PMS_P1;PMS_P2;Temp;Humidity;BMP_temperature;BMP_pressure;BME280_temperature;BME280_humidity;BME280_pressure;Samples;Min_cycle;Max_cycle;Signal;HPM_P1;HPM_P2
2023/02/06 00:01:49;;;;;;;;;4.25;2.00;;;;;;;;119933;1190;25437;-60
2023/02/06 00:04:17;;;;;;;;;4.00;3.00;;;;;;;;119929;1190;25304;-60
2023/02/06 00:06:46;;;;;;;;;7.00;5.00;;;;;;;;119912;1190;25164;-60
2023/02/06 00:09:14;;;;;;;;;5.00;3.50;;;;;;;;119913;1190;24786;-60
2023/02/06 00:11:42;;;;;;;;;6.00;4.33;;;;;;;;119936;1190;25506;-67
2023/02/06 00:14:10;;;;;;;;;4.75;4.75;;;;;;;;119936;1182;24917;-61
2023/02/06 00:16:39;;;;;;;;;5.00;4.50;;;;;;;;119908;1190;25284;-61
2023/02/06 00:19:07;;;;;;;;;5.50;5.50;;;;;;;;119930;1190;25458;-61
2023/02/06 00:21:35;;;;;;;;;5.00;3.00;;;;;;;;119931;1183;25298;-59
2023/02/06 00:24:04;;;;;;;;;4.00;3.25;;;;;;;;119921;1190;25130;-61
2023/02/06 00:26:32;;;;;;;;;4.00;4.00;;;;;;;;119913;1187;24871;-61
2023/02/06 00:29:00;;;;;;;;;4.00;4.00;;;;;;;;119908;1182;25054;-61
2023/02/06 00:31:28;;;;;;;;;6.25;5.00;;;;;;;;119901;1191;25664;-61
2023/02/06 00:33:57;;;;;;;;;6.00;4.00;;;;;;;;119916;1190;25489;-61
2023/02/06 00:36:25;;;;;;;;;4.50;4.00;;;;;;;;119922;1187;25343;-60
2023/02/06 00:38:54;;;;;;;;;5.00;4.00;;;;;;;;119919;1190;25624;-60
2023/02/06 00:41:22;;;;;;;;;6.00;3.33;;;;;;;;119926;1190;25692;-61
2023/02/06 00:43:50;;;;;;;;;7.50;4.50;;;;;;;;119931;1186;25766;-60
2023/02/06 00:46:19;;;;;;;;;3.33;3.00;;;;;;;;119905;1183;24731;-61
2023/02/06 00:48:47;;;;;;;;;3.50;3.50;;;;;;;;119891;1190;25522;-61
2023/02/06 00:51:15;;;;;;;;;6.75;4.00;;;;;;;;119952;1182;25249;-61
2023/02/06 00:53:44;;;;;;;;;3.00;3.00;;;;;;;;119941;1182;24787;-61
2023/02/06 00:56:12;;;;;;;;;4.67;3.33;;;;;;;;119933;1190;24807;-61
2023/02/06 00:58:40;;;;;;;;;2.67;2.67;;;;;;;;119912;1190;25138;-60
2023/02/06 01:01:08;;;;;;;;;5.00;2.00;;;;;;;;119941;1182;25591;-61
2023/02/06 01:03:37;;;;;;;;;3.00;3.00;;;;;;;;119908;1190;25356;-61
2023/02/06 01:06:05;;;;;;;;;3.50;3.00;;;;;;;;119901;1190;24879;-61
2023/02/06 01:08:33;;;;;;;;;6.67;4.33;;;;;;;;119927;1191;25367;-60
2023/02/06 01:11:09;;;;;;;;;4.00;4.00;;;;;;;;119924;1182;25410;-61
2023/02/06 01:13:37;;;;;;;;;2.00;2.00;;;;;;;;119923;1190;25612;-61
2023/02/06 01:16:11;;;;;;;;;3.25;2.00;;;;;;;;119932;1182;25796;-59
2023/02/06 01:18:39;;;;;;;;;5.25;3.25;;;;;;;;119917;1187;25646;-61
2023/02/06 01:21:14;;;;;;;;;4.00;4.00;;;;;;;;119922;1182;25551;-61
2023/02/06 01:23:42;;;;;;;;;4.50;4.50;;;;;;;;119916;1182;25507;-61
2023/02/06 01:26:13;;;;;;;;;4.33;4.33;;;;;;;;119712;1190;25215;-61
2023/02/06 01:28:44;;;;;;;;;4.50;3.00;;;;;;;;119889;1190;25576;-60
2023/02/06 01:31:22;;;;;;;;;5.00;3.00;;;;;;;;119892;1190;25344;-61
2023/02/06 01:33:51;;;;;;;;;6.00;4.33;;;;;;;;119919;1182;25321;-61
2023/02/06 01:36:20;;;;;;;;;6.00;5.00;;;;;;;;119972;1182;25777;-61
2023/02/06 01:38:49;;;;;;;;;6.00;4.00;;;;;;;;119937;1182;25244;-61
2023/02/06 01:41:20;;;;;;;;;3.75;3.00;;;;;;;;119911;1187;25482;-61
2023/02/06 01:44:14;;;;;;;;;5.50;5.00;;;;;;;;119919;1187;25172;-61
2023/02/06 01:46:45;;;;;;;;;3.00;3.00;;;;;;;;119940;1181;25512;-60
2023/02/06 01:49:26;;;;;;;;;3.00;3.00;;;;;;;;119886;1182;24680;-61
2023/02/06 01:52:02;;;;;;;;;3.00;3.00;;;;;;;;119937;1190;25147;-61
2023/02/06 01:54:31;;;;;;;;;5.00;3.33;;;;;;;;119946;1182;25154;-61
2023/02/06 01:57:03;;;;;;;;;3.75;2.50;;;;;;;;119908;1190;24725;-61
2023/02/06 01:59:32;;;;;;;;;2.75;2.25;;;;;;;;119898;1182;24858;-61
2023/02/06 02:02:01;;;;;;;;;3.33;2.67;;;;;;;;119914;1190;25246;-61
2023/02/06 02:04:31;;;;;;;;;6.00;5.00;;;;;;;;119966;1190;24761;-61
2023/02/06 02:07:19;;;;;;;;;3.75;3.00;;;;;;;;119877;1190;25132;-61
2023/02/06 02:09:47;;;;;;;;;3.00;3.00;;;;;;;;119721;1190;24925;-60
2023/02/06 02:12:15;;;;;;;;;3.33;3.33;;;;;;;;119960;1190;25957;-61
2023/02/06 02:14:46;;;;;;;;;2.67;2.67;;;;;;;;119881;1187;25220;-61
2023/02/06 02:17:51;;;;;;;;;4.00;3.00;;;;;;;;119878;1187;24981;-58
2023/02/06 02:20:37;;;;;;;;;4.25;4.25;;;;;;;;119898;1190;25599;-59
2023/02/06 02:23:14;;;;;;;;;4.33;3.33;;;;;;;;119890;1187;25842;-59
2023/02/06 02:25:57;;;;;;;;;4.00;3.00;;;;;;;;119899;1190;25247;-59
2023/02/06 02:28:42;;;;;;;;;5.00;3.50;;;;;;;;119934;1181;25410;-58
2023/02/06 02:31:51;;;;;;;;;7.33;4.67;;;;;;;;119887;1187;24730;-61
2023/02/06 02:34:41;;;;;;;;;2.75;2.75;;;;;;;;119479;1186;24818;-61
2023/02/06 02:37:10;;;;;;;;;5.33;5.00;;;;;;;;119895;1190;25394;-61
2023/02/06 02:39:46;;;;;;;;;4.50;3.00;;;;;;;;119902;1190;25525;-61
2023/02/06 02:42:22;;;;;;;;;2.00;2.00;;;;;;;;119942;1186;24936;-61
2023/02/06 02:45:03;;;;;;;;;3.50;3.50;;;;;;;;119784;1191;25785;-61
2023/02/06 02:47:40;;;;;;;;;5.67;4.00;;;;;;;;119897;1190;25411;-61
2023/02/06 02:50:08;;;;;;;;;4.75;3.75;;;;;;;;119890;1191;25042;-61
2023/02/06 02:52:37;;;;;;;;;4.33;3.67;;;;;;;;119895;1182;25119;-61
2023/02/06 02:55:21;;;;;;;;;4.67;4.00;;;;;;;;119932;1190;25554;-61
2023/02/06 02:57:53;;;;;;;;;3.00;2.50;;;;;;;;119893;1190;25454;-61
2023/02/06 03:00:22;;;;;;;;;4.00;4.00;;;;;;;;119908;1190;26140;-61
2023/02/06 03:02:51;;;;;;;;;4.75;4.25;;;;;;;;119898;1182;24944;-61
2023/02/06 03:05:23;;;;;;;;;4.00;3.00;;;;;;;;119929;1182;25327;-61
2023/02/06 03:08:07;;;;;;;;;4.00;4.00;;;;;;;;119914;1190;25716;-61
2023/02/06 03:11:07;;;;;;;;;5.50;4.50;;;;;;;;119880;1191;25262;-61
2023/02/06 03:13:49;;;;;;;;;4.75;3.50;;;;;;;;119890;1191;26092;-61
2023/02/06 03:16:24;;;;;;;;;2.00;2.00;;;;;;;;119867;1191;24850;-61
2023/02/06 03:19:13;;;;;;;;;4.00;3.50;;;;;;;;119880;1191;25484;-61
2023/02/06 03:21:42;;;;;;;;;4.00;3.00;;;;;;;;119919;1190;25542;-61
2023/02/06 03:24:18;;;;;;;;;5.25;5.25;;;;;;;;119915;1190;24880;-61
2023/02/06 03:26:49;;;;;;;;;5.50;4.00;;;;;;;;119925;1190;25243;-60
2023/02/06 03:29:18;;;;;;;;;5.50;5.50;;;;;;;;119892;1182;25504;-60
2023/02/06 03:31:53;;;;;;;;;4.00;4.00;;;;;;;;119926;1190;25585;-61
2023/02/06 03:34:30;;;;;;;;;4.00;4.00;;;;;;;;119890;1191;25379;-61
2023/02/06 03:36:59;;;;;;;;;5.33;3.67;;;;;;;;119945;1182;25011;-61
2023/02/06 03:39:27;;;;;;;;;4.67;4.67;;;;;;;;119918;1179;25591;-61
2023/02/06 03:41:57;;;;;;;;;2.67;2.33;;;;;;;;119910;1190;24998;-61
2023/02/06 03:44:29;;;;;;;;;5.00;4.00;;;;;;;;119916;1182;24853;-61
2023/02/06 03:46:58;;;;;;;;;5.00;3.00;;;;;;;;119898;1190;25274;-60
2023/02/06 03:49:29;;;;;;;;;2.67;2.67;;;;;;;;120029;1190;25626;-61
2023/02/06 03:52:05;;;;;;;;;3.00;3.00;;;;;;;;119932;1190;25650;-61
2023/02/06 03:54:38;;;;;;;;;4.00;3.00;;;;;;;;120102;1186;25375;-61
2023/02/06 03:57:10;;;;;;;;;4.00;4.00;;;;;;;;119946;1190;24908;-61
2023/02/06 03:59:38;;;;;;;;;4.50;4.00;;;;;;;;119956;1179;25460;-61
2023/02/06 04:02:07;;;;;;;;;4.00;2.75;;;;;;;;120094;1190;25471;-61
2023/02/06 04:04:41;;;;;;;;;2.00;1.67;;;;;;;;119930;1183;25562;-61
2023/02/06 04:07:25;;;;;;;;;5.67;5.00;;;;;;;;119939;1190;25029;-61
2023/02/06 04:09:53;;;;;;;;;5.00;4.00;;;;;;;;119957;1187;25454;-61
2023/02/06 04:12:22;;;;;;;;;3.00;2.00;;;;;;;;120092;1190;25355;-61
2023/02/06 04:14:51;;;;;;;;;2.00;2.00;;;;;;;;119971;1189;25631;-61
2023/02/06 04:17:19;;;;;;;;;7.00;4.00;;;;;;;;119908;1190;24697;-61
2023/02/06 04:20:08;;;;;;;;;3.00;3.00;;;;;;;;120087;1190;24789;-61
2023/02/06 04:22:38;;;;;;;;;3.50;3.50;;;;;;;;119935;1190;25193;-61
2023/02/06 04:25:06;;;;;;;;;3.67;3.67;;;;;;;;119931;1182;24882;-61
2023/02/06 04:27:36;;;;;;;;;4.75;4.00;;;;;;;;119919;1182;24779;-61
2023/02/06 04:30:05;;;;;;;;;4.00;4.00;;;;;;;;119893;1190;25299;-61
2023/02/06 04:32:33;;;;;;;;;3.00;2.75;;;;;;;;120126;1181;25427;-60
2023/02/06 04:35:01;;;;;;;;;4.25;4.00;;;;;;;;120094;1190;25501;-61
2023/02/06 04:37:29;;;;;;;;;5.50;5.50;;;;;;;;120119;1190;25375;-60
2023/02/06 04:39:58;;;;;;;;;3.67;3.67;;;;;;;;119927;1182;25711;-61
2023/02/06 04:42:26;;;;;;;;;4.67;4.00;;;;;;;;119938;1190;24647;-61
2023/02/06 04:44:54;;;;;;;;;4.00;4.00;;;;;;;;120099;1190;25606;-61
2023/02/06 04:47:23;;;;;;;;;4.00;3.25;;;;;;;;120094;1186;24864;-61
2023/02/06 04:49:51;;;;;;;;;6.00;4.33;;;;;;;;120051;1183;25143;-61
2023/02/06 04:52:19;;;;;;;;;4.25;3.50;;;;;;;;119951;1190;24834;-61
2023/02/06 04:54:47;;;;;;;;;3.75;3.50;;;;;;;;120034;1190;25383;-61
2023/02/06 04:57:15;;;;;;;;;5.50;3.50;;;;;;;;120098;1186;25009;-61
2023/02/06 04:59:44;;;;;;;;;4.75;3.00;;;;;;;;120084;1190;25321;-61
2023/02/06 05:02:12;;;;;;;;;3.00;2.00;;;;;;;;120105;1181;25776;-61
2023/02/06 05:04:40;;;;;;;;;3.00;3.00;;;;;;;;119947;1190;25262;-61
2023/02/06 05:07:09;;;;;;;;;5.75;4.00;;;;;;;;119944;1190;25293;-61
2023/02/06 05:09:37;;;;;;;;;3.75;3.75;;;;;;;;120124;1181;25234;-61
2023/02/06 05:12:05;;;;;;;;;5.00;3.00;;;;;;;;120068;1183;24853;-60
2023/02/06 05:14:33;;;;;;;;;4.67;3.67;;;;;;;;119921;1190;25471;-60
2023/02/06 05:17:02;;;;;;;;;3.00;3.00;;;;;;;;120034;1182;24879;-60
2023/02/06 05:19:30;;;;;;;;;5.00;4.00;;;;;;;;119996;1183;25194;-61
2023/02/06 05:21:58;;;;;;;;;5.00;5.00;;;;;;;;120101;1190;25243;-60
2023/02/06 05:24:27;;;;;;;;;5.25;4.50;;;;;;;;120081;1190;25668;-60
2023/02/06 05:26:57;;;;;;;;;5.00;5.00;;;;;;;;120081;1182;25943;-60
2023/02/06 05:29:25;;;;;;;;;5.00;4.00;;;;;;;;120050;1182;25615;-61
2023/02/06 05:31:53;;;;;;;;;3.67;2.67;;;;;;;;120022;1190;24786;-60
2023/02/06 05:34:21;;;;;;;;;3.67;1.33;;;;;;;;120101;1190;24719;-61
2023/02/06 05:36:50;;;;;;;;;3.75;3.75;;;;;;;;120112;1190;24672;-61
2023/02/06 05:39:18;;;;;;;;;2.50;2.50;;;;;;;;119935;1187;25546;-60
2023/02/06 05:41:46;;;;;;;;;3.00;3.00;;;;;;;;119902;1190;25632;-61
2023/02/06 05:44:14;;;;;;;;;3.50;3.00;;;;;;;;119973;1190;25075;-61
2023/02/06 05:46:43;;;;;;;;;4.00;3.00;;;;;;;;120082;1190;25235;-61
2023/02/06 05:49:11;;;;;;;;;4.00;4.00;;;;;;;;119952;1181;25661;-60
2023/02/06 05:51:39;;;;;;;;;3.00;2.00;;;;;;;;120074;1186;24964;-60
2023/02/06 05:54:07;;;;;;;;;3.50;3.00;;;;;;;;119929;1190;24821;-60
2023/02/06 05:56:36;;;;;;;;;4.33;4.00;;;;;;;;120007;1189;25437;-60
2023/02/06 05:59:04;;;;;;;;;4.67;3.67;;;;;;;;120118;1190;24789;-60
2023/02/06 06:01:32;;;;;;;;;3.00;2.50;;;;;;;;120097;1188;25059;-60
2023/02/06 06:04:01;;;;;;;;;4.00;3.50;;;;;;;;120109;1190;25244;-61
2023/02/06 06:06:29;;;;;;;;;2.25;2.25;;;;;;;;119926;1190;25241;-61
2023/02/06 06:09:00;;;;;;;;;4.50;3.50;;;;;;;;119924;1190;24924;-61
2023/02/06 06:11:29;;;;;;;;;5.00;4.00;;;;;;;;120119;1182;26059;-61
2023/02/06 06:13:57;;;;;;;;;3.50;3.50;;;;;;;;119875;1190;25029;-61
2023/02/06 06:16:26;;;;;;;;;2.00;2.00;;;;;;;;119954;1190;25601;-61
2023/02/06 06:18:54;;;;;;;;;5.00;3.00;;;;;;;;119882;1190;25051;-58
2023/02/06 06:21:23;;;;;;;;;3.00;2.00;;;;;;;;120047;1176;25709;-58
2023/02/06 06:23:51;;;;;;;;;4.50;2.50;;;;;;;;120106;1179;25180;-57
2023/02/06 06:26:19;;;;;;;;;7.67;5.00;;;;;;;;120095;1190;24805;-57
2023/02/06 06:28:48;;;;;;;;;7.67;5.00;;;;;;;;120112;1190;25206;-58
2023/02/06 06:31:16;;;;;;;;;7.00;3.00;;;;;;;;120083;1190;24822;-57
2023/02/06 06:33:45;;;;;;;;;8.75;5.75;;;;;;;;119940;1190;25022;-56
2023/02/06 06:36:13;;;;;;;;;4.50;3.75;;;;;;;;119925;1190;24881;-60
2023/02/06 06:38:41;;;;;;;;;5.33;4.00;;;;;;;;120060;1181;24829;-60
2023/02/06 06:41:10;;;;;;;;;5.00;2.25;;;;;;;;120107;1185;24943;-59
2023/02/06 06:43:38;;;;;;;;;6.67;3.67;;;;;;;;119937;1190;25253;-59
2023/02/06 06:46:07;;;;;;;;;7.25;5.00;;;;;;;;120102;1182;25280;-60
2023/02/06 06:48:37;;;;;;;;;5.00;5.00;;;;;;;;120060;1182;24953;-60
2023/02/06 06:51:05;;;;;;;;;10.67;7.00;;;;;;;;119901;1179;25950;-59
2023/02/06 06:53:38;;;;;;;;;11.33;9.67;;;;;;;;119846;1187;25649;-59
2023/02/06 06:56:09;;;;;;;;;4.50;3.00;;;;;;;;119887;1181;25375;-59
2023/02/06 06:58:38;;;;;;;;;6.67;4.33;;;;;;;;119836;1182;24796;-60
2023/02/06 07:01:07;;;;;;;;;7.75;7.25;;;;;;;;119916;1190;25582;-59
2023/02/06 07:03:35;;;;;;;;;5.75;4.00;;;;;;;;120080;1190;25566;-59
2023/02/06 07:06:04;;;;;;;;;9.00;6.50;;;;;;;;120107;1182;25668;-59
2023/02/06 07:08:33;;;;;;;;;6.00;5.00;;;;;;;;119913;1177;25615;-59
2023/02/06 07:11:01;;;;;;;;;11.50;5.25;;;;;;;;120087;1182;25981;-59
2023/02/06 07:13:29;;;;;;;;;6.67;4.67;;;;;;;;120102;1190;25465;-59
2023/02/06 07:15:57;;;;;;;;;5.00;3.00;;;;;;;;120102;1190;24696;-59
2023/02/06 07:18:26;;;;;;;;;5.25;5.00;;;;;;;;120097;1190;25178;-59
2023/02/06 07:20:54;;;;;;;;;6.75;5.25;;;;;;;;120122;1190;25506;-59
2023/02/06 07:23:22;;;;;;;;;6.67;5.33;;;;;;;;120103;1181;25170;-59
2023/02/06 07:25:51;;;;;;;;;4.25;4.00;;;;;;;;119948;1190;25136;-59
2023/02/06 07:28:19;;;;;;;;;10.25;6.00;;;;;;;;120112;1190;25424;-59
2023/02/06 07:30:47;;;;;;;;;5.33;5.33;;;;;;;;119951;1182;25574;-59
2023/02/06 07:33:15;;;;;;;;;6.67;5.33;;;;;;;;120121;1190;25090;-59
2023/02/06 07:35:44;;;;;;;;;8.50;6.50;;;;;;;;120100;1190;25450;-59
2023/02/06 07:38:12;;;;;;;;;8.25;6.00;;;;;;;;120128;1190;25674;-59
2023/02/06 07:40:40;;;;;;;;;9.00;5.00;;;;;;;;120099;1177;25219;-59
2023/02/06 07:43:13;;;;;;;;;7.00;5.67;;;;;;;;120112;1182;26334;-59
2023/02/06 07:45:42;;;;;;;;;6.00;5.50;;;;;;;;120109;1190;25614;-59
2023/02/06 07:48:10;;;;;;;;;6.75;5.75;;;;;;;;119918;1183;24905;-58
2023/02/06 07:50:39;;;;;;;;;8.50;7.50;;;;;;;;120105;1190;24759;-58
2023/02/06 07:53:07;;;;;;;;;11.00;9.00;;;;;;;;120110;1190;24924;-59
2023/02/06 07:55:37;;;;;;;;;10.25;7.00;;;;;;;;119954;1189;25347;-59
2023/02/06 07:58:05;;;;;;;;;9.67;8.00;;;;;;;;119926;1190;25358;-59
2023/02/06 08:00:34;;;;;;;;;9.25;8.00;;;;;;;;120120;1190;25649;-59
2023/02/06 08:03:03;;;;;;;;;8.00;7.00;;;;;;;;119935;1190;25147;-59
2023/02/06 08:05:33;;;;;;;;;10.75;9.00;;;;;;;;119940;1190;24784;-59
2023/02/06 08:08:01;;;;;;;;;7.33;7.33;;;;;;;;120103;1182;25480;-59
2023/02/06 08:10:30;;;;;;;;;7.50;7.00;;;;;;;;119951;1190;25519;-59
2023/02/06 08:12:58;;;;;;;;;8.75;8.75;;;;;;;;120109;1189;25740;-59
2023/02/06 08:15:26;;;;;;;;;11.00;9.00;;;;;;;;119961;1182;24999;-59
2023/02/06 08:17:54;;;;;;;;;9.33;8.67;;;;;;;;120089;1189;25193;-59
2023/02/06 08:20:23;;;;;;;;;13.50;12.00;;;;;;;;120093;1189;24914;-58
2023/02/06 08:22:51;;;;;;;;;9.00;6.50;;;;;;;;120102;1190;25060;-59
2023/02/06 08:25:19;;;;;;;;;12.00;10.50;;;;;;;;119972;1182;25444;-58
2023/02/06 08:27:54;;;;;;;;;8.75;8.00;;;;;;;;120076;1190;25176;-59
2023/02/06 08:30:23;;;;;;;;;10.00;9.50;;;;;;;;119966;1190;25523;-59
2023/02/06 08:32:51;;;;;;;;;9.75;9.75;;;;;;;;120123;1190;25750;-59
2023/02/06 08:35:20;;;;;;;;;7.67;6.33;;;;;;;;120094;1190;25117;-59
2023/02/06 08:37:48;;;;;;;;;10.67;10.00;;;;;;;;120096;1190;25698;-59
2023/02/06 08:40:17;;;;;;;;;8.00;8.00;;;;;;;;120103;1182;25404;-59
2023/02/06 08:42:49;;;;;;;;;8.75;7.50;;;;;;;;120111;1190;25026;-59
2023/02/06 08:45:17;;;;;;;;;7.67;5.00;;;;;;;;119931;1190;24918;-59
2023/02/06 08:47:45;;;;;;;;;12.33;10.67;;;;;;;;120109;1190;25364;-59
2023/02/06 08:50:14;;;;;;;;;12.00;11.00;;;;;;;;120121;1182;25708;-59
2023/02/06 08:52:42;;;;;;;;;10.25;9.75;;;;;;;;120110;1190;25639;-59
2023/02/06 08:55:10;;;;;;;;;8.67;8.00;;;;;;;;119935;1182;24878;-59
2023/02/06 08:57:39;;;;;;;;;6.50;6.00;;;;;;;;120103;1190;24793;-59
2023/02/06 09:00:08;;;;;;;;;6.50;6.50;;;;;;;;120105;1190;26455;-60
2023/02/06 09:02:37;;;;;;;;;9.00;9.00;;;;;;;;119934;1187;25354;-59
2023/02/06 09:05:05;;;;;;;;;7.75;7.75;;;;;;;;120119;1190;24730;-59
2023/02/06 09:07:33;;;;;;;;;8.00;6.50;;;;;;;;120128;1182;25580;-59
2023/02/06 09:10:02;;;;;;;;;8.75;8.00;;;;;;;;120094;1182;25368;-59
2023/02/06 09:12:30;;;;;;;;;10.00;8.00;;;;;;;;120112;1190;25712;-59
2023/02/06 09:14:58;;;;;;;;;6.75;5.50;;;;;;;;120106;1190;25462;-59
2023/02/06 09:17:30;;;;;;;;;8.25;5.50;;;;;;;;120111;1181;25189;-59
2023/02/06 09:19:59;;;;;;;;;7.00;6.00;;;;;;;;119882;1190;25258;-59
2023/02/06 09:22:28;;;;;;;;;8.00;6.00;;;;;;;;119927;1190;25489;-59
2023/02/06 09:24:56;;;;;;;;;8.00;7.50;;;;;;;;119884;1177;24811;-59
2023/02/06 09:27:24;;;;;;;;;6.00;5.33;;;;;;;;119882;1190;24770;-59
2023/02/06 09:29:52;;;;;;;;;6.00;6.00;;;;;;;;119885;1182;25110;-60
2023/02/06 09:32:21;;;;;;;;;7.50;7.50;;;;;;;;119939;1181;24813;-60
2023/02/06 09:34:49;;;;;;;;;8.25;6.00;;;;;;;;119922;1190;24914;-60
2023/02/06 09:37:17;;;;;;;;;6.50;5.00;;;;;;;;119937;1177;24762;-60
2023/02/06 09:39:46;;;;;;;;;9.75;7.00;;;;;;;;119911;1190;24966;-60
2023/02/06 09:42:20;;;;;;;;;8.33;6.33;;;;;;;;120114;1189;25194;-60
2023/02/06 09:44:55;;;;;;;;;12.75;8.50;;;;;;;;119936;1186;24735;-60
2023/02/06 09:47:27;;;;;;;;;10.33;8.00;;;;;;;;119954;1178;25386;-59
2023/02/06 09:50:04;;;;;;;;;10.33;8.00;;;;;;;;119971;1190;24706;-59
2023/02/06 09:52:45;;;;;;;;;11.75;8.50;;;;;;;;119975;1189;24814;-60
2023/02/06 09:55:38;;;;;;;;;11.25;9.75;;;;;;;;119980;1190;25194;-60
2023/02/06 09:58:28;;;;;;;;;9.25;7.75;;;;;;;;119959;1190;24848;-60
2023/02/06 10:01:02;;;;;;;;;10.67;9.67;;;;;;;;119966;1190;24814;-59
2023/02/06 10:03:36;;;;;;;;;10.50;9.25;;;;;;;;120165;1182;24798;-57
2023/02/06 10:06:10;;;;;;;;;5.00;5.00;;;;;;;;120230;1181;25698;-57
2023/02/06 10:09:03;;;;;;;;;15.33;11.00;;;;;;;;119975;1190;25617;-57
2023/02/06 10:11:46;;;;;;;;;9.50;6.50;;;;;;;;119938;1182;24726;-57
2023/02/06 10:14:34;;;;;;;;;10.00;10.00;;;;;;;;120154;1187;25514;-57
2023/02/06 10:17:09;;;;;;;;;12.67;9.00;;;;;;;;119981;1190;24944;-57
2023/02/06 10:20:16;;;;;;;;;12.00;8.50;;;;;;;;119970;1190;25356;-57
2023/02/06 10:22:50;;;;;;;;;8.33;7.00;;;;;;;;119693;1193;25382;-58
2023/02/06 10:25:27;;;;;;;;;7.00;6.00;;;;;;;;119715;1185;25699;-58
2023/02/06 10:27:58;;;;;;;;;9.33;9.00;;;;;;;;119991;1177;25240;-58
2023/02/06 10:31:08;;;;;;;;;4.00;4.00;;;;;;;;120230;1190;25015;-58
2023/02/06 10:34:04;;;;;;;;;11.00;8.00;;;;;;;;120095;1182;24667;-59
2023/02/06 10:36:59;;;;;;;;;11.25;9.50;;;;;;;;120211;1190;24729;-58
2023/02/06 10:39:46;;;;;;;;;3.75;2.75;;;;;;;;120199;1182;25458;-59
2023/02/06 10:42:14;;;;;;;;;7.75;6.00;;;;;;;;120187;1190;24917;-58
2023/02/06 10:45:30;;;;;;;;;7.00;7.00;;;;;;;;120189;1189;25124;-59
2023/02/06 10:48:06;;;;;;;;;9.25;9.25;;;;;;;;119600;1190;24804;-58
2023/02/06 10:51:01;;;;;;;;;7.00;6.50;;;;;;;;120117;1181;24784;-59
2023/02/06 10:53:33;;;;;;;;;8.25;8.00;;;;;;;;120094;1190;24990;-59
2023/02/06 10:56:04;;;;;;;;;11.50;7.00;;;;;;;;119933;1190;25574;-59
2023/02/06 10:58:40;;;;;;;;;6.00;6.00;;;;;;;;120120;1190;24766;-59
2023/02/06 11:01:10;;;;;;;;;8.75;6.25;;;;;;;;120114;1186;25469;-59
2023/02/06 11:04:03;;;;;;;;;9.50;6.00;;;;;;;;119963;1182;25447;-58
2023/02/06 11:06:31;;;;;;;;;8.00;7.00;;;;;;;;120114;1190;25083;-58
2023/02/06 11:09:00;;;;;;;;;6.33;6.33;;;;;;;;119936;1182;25150;-58
2023/02/06 11:11:33;;;;;;;;;6.25;6.25;;;;;;;;120109;1190;24725;-58
2023/02/06 11:14:18;;;;;;;;;5.33;5.33;;;;;;;;119930;1183;25415;-58
2023/02/06 11:16:47;;;;;;;;;5.67;5.67;;;;;;;;119929;1190;24776;-58
2023/02/06 11:19:36;;;;;;;;;7.75;6.75;;;;;;;;119949;1190;25763;-58
2023/02/06 11:22:07;;;;;;;;;5.50;5.00;;;;;;;;120105;1190;24966;-58
2023/02/06 11:24:36;;;;;;;;;7.33;5.00;;;;;;;;120096;1190;25162;-58
2023/02/06 11:27:19;;;;;;;;;7.33;7.33;;;;;;;;120110;1182;25641;-58
2023/02/06 11:29:48;;;;;;;;;5.67;4.33;;;;;;;;119942;1190;24751;-58
2023/02/06 11:32:34;;;;;;;;;7.00;7.00;;;;;;;;119952;1179;24699;-58
2023/02/06 11:35:34;;;;;;;;;7.00;6.50;;;;;;;;120114;1181;25602;-58
2023/02/06 11:38:22;;;;;;;;;4.50;4.50;;;;;;;;119939;1182;24806;-58
2023/02/06 11:41:05;;;;;;;;;6.25;5.25;;;;;;;;120133;1176;25672;-59
2023/02/06 11:43:33;;;;;;;;;6.25;6.00;;;;;;;;119956;1190;25593;-58
2023/02/06 11:46:15;;;;;;;;;5.50;5.00;;;;;;;;120116;1190;25636;-58
2023/02/06 11:48:48;;;;;;;;;9.75;6.50;;;;;;;;120110;1190;24688;-58
2023/02/06 11:51:16;;;;;;;;;9.25;7.50;;;;;;;;119940;1182;25391;-58
2023/02/06 11:53:59;;;;;;;;;6.00;6.00;;;;;;;;120101;1190;26394;-58
2023/02/06 11:56:30;;;;;;;;;6.33;5.33;;;;;;;;120102;1190;25301;-58
2023/02/06 11:59:14;;;;;;;;;7.00;7.00;;;;;;;;119944;1182;25617;-58
2023/02/06 12:01:45;;;;;;;;;6.25;6.25;;;;;;;;119921;1190;25411;-60
2023/02/06 12:04:24;;;;;;;;;10.50;7.50;;;;;;;;119954;1183;24849;-57
2023/02/06 12:06:58;;;;;;;;;4.33;3.33;;;;;;;;119932;1190;25541;-57
2023/02/06 12:09:26;;;;;;;;;5.00;4.50;;;;;;;;119942;1190;24777;-57
2023/02/06 12:11:59;;;;;;;;;6.00;6.00;;;;;;;;119945;1190;25092;-57
2023/02/06 12:14:32;;;;;;;;;6.67;5.33;;;;;;;;119960;1190;25673;-58
2023/02/06 12:17:02;;;;;;;;;5.50;5.00;;;;;;;;119937;1190;25383;-58
2023/02/06 12:19:38;;;;;;;;;9.00;7.00;;;;;;;;120117;1190;24693;-56
2023/02/06 12:22:15;;;;;;;;;6.50;6.50;;;;;;;;119927;1190;24840;-58
2023/02/06 12:24:47;;;;;;;;;6.00;5.67;;;;;;;;119971;1182;24729;-57
2023/02/06 12:27:23;;;;;;;;;5.75;5.50;;;;;;;;119930;1190;24909;-57
2023/02/06 12:30:01;;;;;;;;;4.67;4.67;;;;;;;;119955;1190;24918;-57
2023/02/06 12:32:40;;;;;;;;;7.00;5.00;;;;;;;;119957;1190;25553;-58
2023/02/06 12:35:25;;;;;;;;;9.67;7.67;;;;;;;;119932;1182;25113;-57
2023/02/06 12:37:59;;;;;;;;;5.75;4.00;;;;;;;;119971;1182;25296;-57
2023/02/06 12:41:10;;;;;;;;;8.75;5.25;;;;;;;;119966;1183;24849;-57
2023/02/06 12:43:40;;;;;;;;;6.67;6.33;;;;;;;;119996;1185;25348;-57
2023/02/06 12:46:12;;;;;;;;;7.67;7.67;;;;;;;;120112;1190;25452;-57
2023/02/06 12:48:50;;;;;;;;;7.50;6.00;;;;;;;;120112;1190;25701;-57
2023/02/06 12:51:22;;;;;;;;;11.00;5.67;;;;;;;;120119;1189;25285;-57
2023/02/06 12:54:09;;;;;;;;;8.00;6.00;;;;;;;;120110;1190;25365;-57
2023/02/06 12:57:00;;;;;;;;;5.33;4.00;;;;;;;;120115;1189;25607;-57
2023/02/06 13:00:08;;;;;;;;;5.00;5.00;;;;;;;;120117;1190;25498;-57
2023/02/06 13:02:58;;;;;;;;;6.67;5.00;;;;;;;;119934;1190;24898;-57
2023/02/06 13:05:48;;;;;;;;;9.75;6.50;;;;;;;;120122;1189;25397;-57
2023/02/06 13:08:25;;;;;;;;;7.00;6.00;;;;;;;;120111;1182;25569;-57
2023/02/06 13:11:11;;;;;;;;;5.00;5.00;;;;;;;;119927;1190;24899;-57
2023/02/06 13:13:41;;;;;;;;;8.00;5.75;;;;;;;;119954;1190;24832;-58
2023/02/06 13:16:09;;;;;;;;;5.00;5.00;;;;;;;;120123;1182;25367;-57
2023/02/06 13:18:40;;;;;;;;;5.00;5.00;;;;;;;;119959;1189;24795;-57
2023/02/06 13:21:14;;;;;;;;;9.33;5.00;;;;;;;;120105;1190;25259;-57
2023/02/06 13:24:02;;;;;;;;;4.33;3.00;;;;;;;;119941;1182;24845;-58
2023/02/06 13:26:51;;;;;;;;;5.50;5.00;;;;;;;;120094;1190;25045;-58
2023/02/06 13:29:33;;;;;;;;;6.50;5.50;;;;;;;;120109;1190;24852;-58
2023/02/06 13:32:11;;;;;;;;;6.00;6.00;;;;;;;;119940;1182;24742;-58
2023/02/06 13:34:45;;;;;;;;;6.25;5.50;;;;;;;;120131;1190;25720;-58
2023/02/06 13:37:20;;;;;;;;;7.00;7.00;;;;;;;;120123;1181;25647;-58
2023/02/06 13:40:24;;;;;;;;;7.00;5.67;;;;;;;;119921;1190;25213;-58
2023/02/06 13:42:58;;;;;;;;;7.50;5.50;;;;;;;;119982;1182;25448;-58
2023/02/06 13:45:41;;;;;;;;;4.00;3.00;;;;;;;;119906;1190;24938;-58
2023/02/06 13:48:33;;;;;;;;;4.75;4.50;;;;;;;;119908;1190;25182;-58
2023/02/06 13:51:30;;;;;;;;;7.00;5.00;;;;;;;;119896;1182;25415;-58
2023/02/06 13:54:36;;;;;;;;;4.00;4.00;;;;;;;;119922;1190;25054;-58
2023/02/06 13:57:32;;;;;;;;;6.75;6.75;;;;;;;;119929;1190;24869;-58
2023/02/06 14:00:16;;;;;;;;;4.00;4.00;;;;;;;;119904;1182;25279;-58
2023/02/06 14:02:48;;;;;;;;;4.25;4.00;;;;;;;;119888;1190;24801;-58
2023/02/06 14:05:25;;;;;;;;;5.00;4.25;;;;;;;;119917;1190;24773;-57
2023/02/06 14:08:29;;;;;;;;;7.00;4.75;;;;;;;;119908;1190;25353;-57
2023/02/06 14:14:13;;;;;;;;;6.00;4.75;;;;;;;;119925;1182;24871;-57
2023/02/06 14:17:05;;;;;;;;;6.75;5.00;;;;;;;;119913;1190;25452;-58
2023/02/06 14:19:53;;;;;;;;;6.50;5.00;;;;;;;;119938;1190;25360;-57
2023/02/06 14:22:39;;;;;;;;;5.00;5.00;;;;;;;;119914;1182;24688;-57
2023/02/06 14:25:26;;;;;;;;;6.00;4.00;;;;;;;;120094;1189;25479;-58
2023/02/06 14:28:07;;;;;;;;;3.25;3.25;;;;;;;;120128;1176;25469;-57
2023/02/06 14:30:47;;;;;;;;;4.00;3.00;;;;;;;;119951;1182;25551;-58
2023/02/06 14:33:15;;;;;;;;;5.50;5.50;;;;;;;;120086;1189;25287;-57
2023/02/06 14:35:44;;;;;;;;;6.75;6.00;;;;;;;;119916;1190;25650;-57
2023/02/06 14:38:21;;;;;;;;;5.00;5.00;;;;;;;;120109;1189;24708;-57
2023/02/06 14:40:51;;;;;;;;;3.50;3.50;;;;;;;;120114;1189;24742;-56
2023/02/06 14:43:23;;;;;;;;;4.00;4.00;;;;;;;;119929;1190;25674;-56
2023/02/06 14:45:54;;;;;;;;;3.75;3.75;;;;;;;;119953;1190;27150;-57
2023/02/06 14:48:39;;;;;;;;;10.00;4.00;;;;;;;;120110;1189;25512;-56
2023/02/06 14:51:19;;;;;;;;;6.00;5.50;;;;;;;;119963;1182;24729;-57
2023/02/06 14:54:05;;;;;;;;;4.00;4.00;;;;;;;;119921;1183;25183;-56
2023/02/06 14:56:36;;;;;;;;;5.00;2.75;;;;;;;;119909;1190;25037;-57
2023/02/06 14:59:16;;;;;;;;;4.50;4.00;;;;;;;;119914;1190;24934;-58
2023/02/06 15:01:47;;;;;;;;;5.33;4.33;;;;;;;;119911;1190;25664;-58
2023/02/06 15:04:23;;;;;;;;;2.67;2.67;;;;;;;;119912;1181;25672;-57
2023/02/06 15:06:52;;;;;;;;;7.00;5.00;;;;;;;;119890;1190;24932;-57
2023/02/06 15:09:33;;;;;;;;;12.33;9.67;;;;;;;;119986;1187;25597;-57
2023/02/06 15:12:17;;;;;;;;;17.00;13.67;;;;;;;;120073;1190;25494;-58